Time;durP1;ratioP1;P1;durP2;ratioP2;P2;SDS_P1;SDS_P2;PMS_P1;PMS_P2;Temp;Humidity;BMP_temperature;BMP_pressure;BME280_temperature;BME280_humidity;BME280_pressure;Samples;Min_cycle;Max_cycle;Signal;HPM_P1;HPM_P2
2021/12/30 00:00:29;;;;;;;28.42;5.15;;;9.40;99.90;;;;;;5052562;28;20037;-69
2021/12/30 00:02:55;;;;;;;29.92;5.80;;;9.40;99.90;;;;;;5056801;28;20055;-69
2021/12/30 00:05:20;;;;;;;29.10;4.75;;;9.40;99.90;;;;;;5059787;28;20436;-70
2021/12/30 00:07:46;;;;;;;29.33;5.60;;;9.30;99.90;;;;;;5057903;28;20063;-69
2021/12/30 00:10:12;;;;;;;31.25;5.50;;;9.30;99.90;;;;;;5058614;28;20033;-69
2021/12/30 00:12:37;;;;;;;28.10;5.47;;;9.30;99.90;;;;;;5060787;28;20044;-69
2021/12/30 00:15:05;;;;;;;34.42;5.72;;;9.30;99.90;;;;;;5061906;28;20045;-68
2021/12/30 00:17:31;;;;;;;28.58;5.68;;;9.20;99.90;;;;;;5063075;28;20047;-67
2021/12/30 00:19:57;;;;;;;29.98;5.45;;;9.20;99.90;;;;;;5058042;28;20044;-67
2021/12/30 00:22:23;;;;;;;32.25;5.00;;;9.20;99.90;;;;;;5059746;28;20067;-67
2021/12/30 00:24:49;;;;;;;39.78;5.57;;;9.20;99.90;;;;;;5061733;28;20076;-67
2021/12/30 00:27:14;;;;;;;32.97;5.80;;;9.20;99.90;;;;;;5057931;28;20401;-67
2021/12/30 00:29:40;;;;;;;30.08;5.25;;;9.20;99.90;;;;;;5047441;28;20041;-68
2021/12/30 00:32:06;;;;;;;35.50;5.47;;;9.10;99.90;;;;;;5059612;28;20094;-68
2021/12/30 00:34:31;;;;;;;34.40;5.97;;;9.10;99.90;;;;;;5058810;28;20040;-67
2021/12/30 00:36:57;;;;;;;24.45;5.05;;;9.10;99.90;;;;;;5066377;28;20131;-67
2021/12/30 00:39:22;;;;;;;31.17;5.40;;;9.10;99.90;;;;;;5065980;28;20044;-69
2021/12/30 00:41:48;;;;;;;30.73;5.35;;;9.00;99.90;;;;;;5060192;28;20037;-68
2021/12/30 00:44:13;;;;;;;29.25;6.25;;;9.00;99.90;;;;;;5057871;28;20048;-68
2021/12/30 00:46:39;;;;;;;33.17;6.50;;;9.00;99.90;;;;;;5057790;28;20503;-67
2021/12/30 00:49:05;;;;;;;28.25;4.93;;;9.00;99.90;;;;;;5058365;28;20063;-67
2021/12/30 00:51:30;;;;;;;35.55;5.53;;;9.00;99.90;;;;;;5066283;28;20083;-68
2021/12/30 00:53:56;;;;;;;36.47;5.80;;;9.00;99.90;;;;;;5062692;28;20056;-69
2021/12/30 00:56:22;;;;;;;31.75;5.07;;;8.90;99.90;;;;;;5053889;28;20053;-67
2021/12/30 00:58:48;;;;;;;38.83;6.65;;;8.90;99.90;;;;;;5059352;28;20147;-68
2021/12/30 01:01:13;;;;;;;27.08;5.30;;;8.90;99.90;;;;;;5058150;28;20044;-68
2021/12/30 01:03:39;;;;;;;26.98;4.78;;;8.90;99.90;;;;;;5067570;28;20143;-68
2021/12/30 01:06:05;;;;;;;25.50;5.38;;;8.80;99.90;;;;;;5064719;28;20033;-66
2021/12/30 01:08:31;;;;;;;25.20;5.15;;;8.80;99.90;;;;;;5066007;28;20152;-66
2021/12/30 01:10:57;;;;;;;27.70;5.13;;;8.80;99.90;;;;;;5056823;28;20121;-67
2021/12/30 01:13:26;;;;;;;24.65;5.13;;;8.70;99.90;;;;;;5063253;28;20052;-69
2021/12/30 01:18:56;;;;;;;35.15;5.63;;;8.70;99.90;;;;;;5061736;28;20147;-68
2021/12/30 01:21:12;;;;;;;28.55;5.15;;;8.70;99.90;;;;;;5060692;28;20056;-67
2021/12/30 01:23:41;;;;;;;37.58;6.25;;;8.70;99.90;;;;;;5057392;28;20480;-67
2021/12/30 01:26:07;;;;;;;30.90;5.78;;;8.70;99.90;;;;;;5056522;28;20457;-67
2021/12/30 01:28:33;;;;;;;35.55;6.13;;;8.70;99.90;;;;;;5056905;28;20365;-68
2021/12/30 01:30:59;;;;;;;29.77;5.85;;;8.70;99.90;;;;;;5060159;28;20110;-68
2021/12/30 01:33:25;;;;;;;33.90;6.28;;;8.70;99.90;;;;;;5059318;28;20037;-69
2021/12/30 01:35:51;;;;;;;33.50;6.35;;;8.60;99.90;;;;;;5059288;28;20059;-68
2021/12/30 01:38:17;;;;;;;30.77;5.80;;;8.60;99.90;;;;;;5058352;28;20310;-68
2021/12/30 01:40:46;;;;;;;34.17;6.53;;;8.60;99.90;;;;;;5055219;28;20482;-68
2021/12/30 01:43:12;;;;;;;35.65;6.75;;;8.70;99.90;;;;;;5056641;28;20049;-68
2021/12/30 01:45:39;;;;;;;31.55;6.25;;;8.70;99.90;;;;;;5059716;28;20136;-68
2021/12/30 01:48:05;;;;;;;34.58;7.88;;;8.70;99.90;;;;;;5056387;28;20047;-69
2021/12/30 01:50:31;;;;;;;34.92;7.60;;;8.70;99.90;;;;;;5061653;28;20048;-68
2021/12/30 01:52:58;;;;;;;32.70;7.32;;;8.80;99.90;;;;;;5057619;28;20063;-69
2021/12/30 01:55:26;;;;;;;39.80;9.00;;;8.80;99.90;;;;;;5051854;28;20076;-69
2021/12/30 01:57:52;;;;;;;37.15;8.73;;;8.90;99.90;;;;;;5054411;28;20116;-69
2021/12/30 02:00:21;;;;;;;43.33;8.77;;;8.90;99.90;;;;;;5059380;28;20036;-68
2021/12/30 02:02:47;;;;;;;42.83;9.07;;;9.00;99.90;;;;;;5059797;28;20140;-67
2021/12/30 02:05:13;;;;;;;44.35;9.80;;;9.00;99.90;;;;;;5053380;28;20128;-68
2021/12/30 02:07:39;;;;;;;41.22;9.30;;;9.00;99.90;;;;;;5054849;28;20033;-67
2021/12/30 02:10:06;;;;;;;43.53;9.93;;;9.00;99.90;;;;;;5057508;28;20060;-68
2021/12/30 02:12:34;;;;;;;37.53;9.80;;;9.00;99.90;;;;;;5059075;28;20040;-69
2021/12/30 02:15:00;;;;;;;43.08;10.88;;;9.10;99.90;;;;;;5061163;28;20045;-68
2021/12/30 02:17:27;;;;;;;46.25;11.95;;;9.10;99.90;;;;;;5056739;28;20476;-68
2021/12/30 02:20:01;;;;;;;42.47;10.05;;;9.10;99.90;;;;;;5058698;28;20060;-69
2021/12/30 02:22:26;;;;;;;43.08;12.50;;;9.10;99.90;;;;;;5060074;28;20068;-68
2021/12/30 02:24:52;;;;;;;52.00;12.55;;;9.20;99.90;;;;;;5060057;28;20080;-68
2021/12/30 02:27:19;;;;;;;47.85;12.75;;;9.20;99.90;;;;;;5060000;28;20426;-68
2021/12/30 02:29:45;;;;;;;44.83;13.25;;;9.20;99.90;;;;;;5059948;28;20044;-68
2021/12/30 02:32:10;;;;;;;43.63;13.05;;;9.20;99.90;;;;;;5054097;28;20037;-68
2021/12/30 02:34:38;;;;;;;46.88;12.82;;;9.30;99.90;;;;;;5052789;28;20041;-68
2021/12/30 02:37:04;;;;;;;46.05;14.43;;;9.30;99.90;;;;;;5051067;28;20686;-68
2021/12/30 02:39:30;;;;;;;45.75;13.07;;;9.30;99.90;;;;;;5058470;28;20117;-69
2021/12/30 02:41:56;;;;;;;48.10;14.18;;;9.30;99.90;;;;;;5054173;28;20551;-68
2021/12/30 02:44:21;;;;;;;50.05;13.85;;;9.40;99.90;;;;;;5057188;28;20041;-68
2021/12/30 02:46:52;;;;;;;51.28;13.98;;;9.40;99.90;;;;;;5056703;28;20048;-68
2021/12/30 02:49:18;;;;;;;47.50;14.32;;;9.40;99.90;;;;;;5058979;28;20119;-68
2021/12/30 02:51:44;;;;;;;55.40;15.50;;;9.50;99.90;;;;;;5059573;28;20116;-69
2021/12/30 02:54:09;;;;;;;53.80;15.27;;;9.50;99.90;;;;;;5059932;28;20045;-69
2021/12/30 02:56:35;;;;;;;54.75;14.93;;;9.50;99.90;;;;;;5052970;28;20091;-69
2021/12/30 02:59:01;;;;;;;52.15;15.18;;;9.50;99.90;;;;;;5058620;28;20055;-70
2021/12/30 03:01:29;;;;;;;52.40;14.85;;;9.50;99.90;;;;;;5058385;28;20101;-69
2021/12/30 03:04:00;;;;;;;52.13;14.63;;;9.60;99.90;;;;;;5054362;28;20076;-69
2021/12/30 03:06:26;;;;;;;55.38;14.52;;;9.60;99.90;;;;;;5061136;28;20063;-69
2021/12/30 03:08:53;;;;;;;50.05;14.57;;;9.60;99.90;;;;;;5053516;28;20047;-69
2021/12/30 03:11:21;;;;;;;50.42;14.60;;;9.60;99.90;;;;;;5057467;28;20090;-68
2021/12/30 03:13:47;;;;;;;51.83;14.38;;;9.60;99.90;;;;;;5057574;28;20128;-69
2021/12/30 03:16:21;;;;;;;55.88;14.02;;;9.70;99.90;;;;;;5050251;28;20489;-69
2021/12/30 03:18:48;;;;;;;54.47;14.45;;;9.70;99.90;;;;;;5061050;28;20539;-69
2021/12/30 03:21:16;;;;;;;43.70;14.20;;;9.70;99.90;;;;;;5030408;28;20051;-69
2021/12/30 03:23:42;;;;;;;47.88;13.77;;;9.70;99.90;;;;;;5053129;28;20045;-69
2021/12/30 03:26:09;;;;;;;48.92;14.20;;;9.70;99.90;;;;;;5056758;28;20120;-70
2021/12/30 03:28:39;;;;;;;46.47;13.90;;;9.70;99.90;;;;;;5052237;28;20057;-68
2021/12/30 03:31:04;;;;;;;48.10;12.88;;;9.70;99.90;;;;;;5050251;28;20583;-68
2021/12/30 03:33:31;;;;;;;44.00;13.35;;;9.70;99.90;;;;;;5056207;28;20043;-67
2021/12/30 03:35:59;;;;;;;51.78;13.15;;;9.70;99.90;;;;;;5060543;28;20064;-68
2021/12/30 03:38:29;;;;;;;50.90;12.73;;;9.80;99.90;;;;;;5054111;28;20060;-67
2021/12/30 03:40:55;;;;;;;55.38;14.20;;;9.80;99.90;;;;;;5049442;28;20037;-69
2021/12/30 03:43:21;;;;;;;48.88;14.13;;;9.90;99.90;;;;;;5051126;28;20071;-68
2021/12/30 03:45:46;;;;;;;51.42;13.93;;;9.90;99.90;;;;;;5060468;28;20252;-68
2021/12/30 03:48:12;;;;;;;49.78;14.75;;;9.80;99.90;;;;;;5055579;28;20052;-68
2021/12/30 03:50:44;;;;;;;54.53;13.88;;;9.90;99.90;;;;;;5050125;28;20504;-68
2021/12/30 03:53:11;;;;;;;52.92;15.00;;;10.00;99.90;;;;;;5051315;28;21795;-68
2021/12/30 03:55:37;;;;;;;71.93;17.23;;;10.00;99.90;;;;;;5061421;28;20063;-67
2021/12/30 03:58:03;;;;;;;51.03;14.35;;;10.00;99.90;;;;;;5053436;28;20433;-68
2021/12/30 04:00:31;;;;;;;56.15;14.45;;;10.00;99.90;;;;;;5053055;28;20389;-67
2021/12/30 04:02:57;;;;;;;65.50;16.13;;;10.00;99.90;;;;;;5057748;28;20473;-68
2021/12/30 04:05:22;;;;;;;59.72;15.85;;;10.00;99.90;;;;;;5059848;28;20052;-69
2021/12/30 04:07:48;;;;;;;57.92;14.80;;;10.00;99.90;;;;;;5061022;28;20055;-68
2021/12/30 04:10:15;;;;;;;60.28;16.27;;;10.00;99.90;;;;;;5060688;28;20167;-69
2021/12/30 04:12:43;;;;;;;54.25;14.90;;;10.10;99.90;;;;;;5050897;28;20041;-69
2021/12/30 04:15:09;;;;;;;63.25;16.65;;;10.10;99.90;;;;;;5058255;28;20037;-69
2021/12/30 04:17:35;;;;;;;71.85;17.50;;;10.10;99.90;;;;;;5056077;28;20182;-69
2021/12/30 04:20:01;;;;;;;71.45;18.90;;;10.10;99.90;;;;;;5056495;28;20045;-69
2021/12/30 04:22:26;;;;;;;45.22;15.90;;;10.20;99.90;;;;;;5060149;28;20057;-68
2021/12/30 04:24:52;;;;;;;60.90;17.48;;;10.20;99.90;;;;;;5053562;28;20045;-69
2021/12/30 04:27:18;;;;;;;59.67;17.48;;;10.30;99.90;;;;;;5049382;28;20044;-68
2021/12/30 04:29:43;;;;;;;61.42;17.73;;;10.30;99.90;;;;;;5053827;28;20036;-68
2021/12/30 04:32:09;;;;;;;60.00;18.42;;;10.30;99.90;;;;;;5052728;28;20135;-68
2021/12/30 04:34:35;;;;;;;61.10;19.17;;;10.30;99.90;;;;;;5055675;28;20130;-68
2021/12/30 04:37:00;;;;;;;59.72;18.95;;;10.40;99.90;;;;;;5054871;28;20048;-68
2021/12/30 04:39:28;;;;;;;55.28;18.75;;;10.40;99.90;;;;;;5057317;28;20166;-68
2021/12/30 04:41:53;;;;;;;56.58;17.70;;;10.40;99.90;;;;;;5058612;28;20399;-68
2021/12/30 04:44:19;;;;;;;51.65;18.55;;;10.40;99.90;;;;;;5056807;28;20037;-69
2021/12/30 04:46:45;;;;;;;52.95;18.52;;;10.50;99.90;;;;;;5061427;28;20041;-68
2021/12/30 04:49:11;;;;;;;55.53;19.73;;;10.50;99.90;;;;;;5055996;28;20044;-68
2021/12/30 04:51:37;;;;;;;72.00;22.38;;;10.50;99.90;;;;;;5051394;28;20153;-69
2021/12/30 04:54:03;;;;;;;67.15;22.23;;;10.50;99.90;;;;;;5054185;28;20049;-68
2021/12/30 04:56:29;;;;;;;70.65;21.73;;;10.50;99.90;;;;;;5052317;28;20044;-68
2021/12/30 04:58:54;;;;;;;80.57;23.58;;;10.60;99.90;;;;;;5049559;28;20033;-68
2021/12/30 05:01:20;;;;;;;64.03;22.95;;;10.60;99.90;;;;;;5051427;28;20040;-68
2021/12/30 05:03:46;;;;;;;69.05;22.95;;;10.60;99.90;;;;;;5053317;28;20554;-69
2021/12/30 05:06:11;;;;;;;71.15;23.73;;;10.60;99.90;;;;;;5061659;28;20768;-68
2021/12/30 05:08:37;;;;;;;68.40;22.52;;;10.70;99.90;;;;;;5057473;28;20103;-68
2021/12/30 05:11:04;;;;;;;63.03;22.40;;;10.70;99.90;;;;;;5061343;28;20429;-69
2021/12/30 05:13:30;;;;;;;78.60;25.70;;;10.70;99.90;;;;;;5041051;28;20049;-67
2021/12/30 05:15:56;;;;;;;83.90;25.20;;;10.70;99.90;;;;;;5055071;28;20372;-67
2021/12/30 05:18:30;;;;;;;76.43;25.67;;;10.80;99.90;;;;;;5060515;28;20048;-68
2021/12/30 05:20:56;;;;;;;80.50;26.63;;;10.80;99.90;;;;;;5055878;28;20045;-67
2021/12/30 05:23:22;;;;;;;93.20;28.00;;;10.80;99.90;;;;;;5062931;28;20110;-67
2021/12/30 05:25:47;;;;;;;85.05;26.50;;;10.90;99.90;;;;;;5064316;28;20044;-67
2021/12/30 05:28:13;;;;;;;87.40;27.58;;;10.80;99.90;;;;;;5055858;28;20043;-67
2021/12/30 05:30:38;;;;;;;102.85;28.92;;;10.90;99.90;;;;;;5056136;28;20043;-67
2021/12/30 05:33:05;;;;;;;104.03;29.42;;;10.90;99.90;;;;;;5060164;28;20044;-68
2021/12/30 05:35:31;;;;;;;100.07;27.85;;;10.90;99.90;;;;;;5052673;28;20055;-67
2021/12/30 05:37:59;;;;;;;98.38;27.55;;;11.00;99.90;;;;;;5056942;28;20468;-68
2021/12/30 05:40:24;;;;;;;96.93;26.35;;;10.90;99.90;;;;;;5054136;28;20059;-68
2021/12/30 05:42:50;;;;;;;86.57;25.67;;;10.90;99.90;;;;;;5050414;28;20484;-68
2021/12/30 05:45:16;;;;;;;101.80;26.40;;;11.00;99.90;;;;;;5053946;28;20079;-68
2021/12/30 05:47:46;;;;;;;99.03;26.67;;;11.00;99.90;;;;;;5054346;28;20171;-67
2021/12/30 05:50:14;;;;;;;102.72;27.13;;;11.00;99.90;;;;;;5069604;28;20079;-68
2021/12/30 05:52:39;;;;;;;98.55;25.58;;;11.00;99.90;;;;;;5060292;28;20349;-67
2021/12/30 05:55:06;;;;;;;89.60;25.42;;;11.00;99.90;;;;;;5055401;28;20055;-68
2021/12/30 05:57:32;;;;;;;90.22;23.90;;;11.10;99.90;;;;;;5057195;28;20396;-68
2021/12/30 05:59:58;;;;;;;97.68;26.20;;;11.10;99.90;;;;;;5062801;28;20122;-68
2021/12/30 06:02:23;;;;;;;91.50;25.80;;;11.20;99.90;;;;;;5057882;28;20049;-68
2021/12/30 06:04:49;;;;;;;94.93;26.60;;;11.20;99.90;;;;;;5051746;28;20329;-69
2021/12/30 06:07:14;;;;;;;83.03;26.15;;;11.10;99.90;;;;;;5051340;28;20048;-68
2021/12/30 06:09:41;;;;;;;85.13;24.85;;;11.20;99.90;;;;;;5055965;28;20533;-68
2021/12/30 06:12:07;;;;;;;86.88;25.10;;;11.20;99.90;;;;;;5056452;28;20053;-68
2021/12/30 06:14:33;;;;;;;72.03;23.52;;;11.20;99.90;;;;;;5056640;28;21137;-69
2021/12/30 06:16:58;;;;;;;80.88;24.63;;;11.20;99.90;;;;;;5057170;28;20124;-68
2021/12/30 06:19:24;;;;;;;78.78;23.98;;;11.20;99.90;;;;;;5055244;28;20090;-71
2021/12/30 06:21:50;;;;;;;77.38;23.58;;;11.20;99.90;;;;;;5054307;28;20036;-69
2021/12/30 06:24:15;;;;;;;78.40;24.35;;;11.30;99.90;;;;;;5059311;28;20126;-68
2021/12/30 06:26:41;;;;;;;83.50;24.33;;;11.30;99.90;;;;;;5056341;28;20099;-68
2021/12/30 06:29:06;;;;;;;76.38;23.80;;;11.30;99.90;;;;;;5059034;28;20199;-69
2021/12/30 06:31:32;;;;;;;67.32;21.58;;;11.20;99.90;;;;;;5050413;28;20048;-69
2021/12/30 06:33:58;;;;;;;69.95;22.30;;;11.30;99.90;;;;;;5054044;28;20033;-68
2021/12/30 06:36:23;;;;;;;73.32;22.02;;;11.30;99.90;;;;;;5052493;28;20119;-67
2021/12/30 06:38:50;;;;;;;72.25;20.65;;;11.30;99.90;;;;;;5053677;28;20429;-69
2021/12/30 06:41:16;;;;;;;60.75;19.75;;;11.30;99.90;;;;;;5053561;28;20040;-67
2021/12/30 06:43:42;;;;;;;54.70;17.55;;;11.30;99.90;;;;;;5053139;28;20033;-68
2021/12/30 06:46:10;;;;;;;45.97;16.48;;;11.30;99.90;;;;;;5052425;28;20040;-68
2021/12/30 06:48:36;;;;;;;42.55;15.07;;;11.40;99.90;;;;;;5054032;28;20048;-69
2021/12/30 06:51:04;;;;;;;36.38;12.55;;;11.30;99.90;;;;;;5052791;28;20052;-68
2021/12/30 06:53:32;;;;;;;33.42;12.00;;;11.40;99.90;;;;;;5051994;28;20467;-68
2021/12/30 06:55:57;;;;;;;28.15;11.13;;;11.40;99.90;;;;;;5056879;28;20128;-68
2021/12/30 06:58:23;;;;;;;28.60;10.00;;;11.40;99.90;;;;;;5037732;28;20123;-69
2021/12/30 07:00:50;;;;;;;22.00;8.60;;;11.40;99.90;;;;;;5062572;28;20520;-69
2021/12/30 07:03:16;;;;;;;21.80;7.85;;;11.40;99.90;;;;;;5064432;28;20437;-68
2021/12/30 07:05:42;;;;;;;19.85;7.55;;;11.40;99.90;;;;;;5044517;28;20044;-70
2021/12/30 07:08:08;;;;;;;18.42;7.38;;;11.40;99.90;;;;;;5061105;28;20386;-69
2021/12/30 07:10:34;;;;;;;20.63;7.55;;;11.40;99.90;;;;;;5057032;28;20102;-69
2021/12/30 07:12:59;;;;;;;20.85;8.35;;;11.40;99.90;;;;;;5062492;28;20061;-69
2021/12/30 07:15:25;;;;;;;17.55;7.18;;;11.40;99.90;;;;;;5059792;28;20451;-69
2021/12/30 07:17:50;;;;;;;19.92;7.75;;;11.40;99.90;;;;;;5056974;28;20425;-69
2021/12/30 07:20:16;;;;;;;19.05;8.35;;;11.50;99.90;;;;;;5062307;28;20047;-68
2021/12/30 07:22:42;;;;;;;18.92;8.65;;;11.50;99.90;;;;;;5057816;28;20071;-69
2021/12/30 07:25:09;;;;;;;16.10;7.95;;;11.50;99.90;;;;;;5065253;28;20076;-69
2021/12/30 07:27:35;;;;;;;21.92;9.23;;;11.50;99.90;;;;;;5055329;28;20131;-69
2021/12/30 07:30:01;;;;;;;21.67;9.90;;;11.50;99.90;;;;;;5057100;28;20135;-71
2021/12/30 07:32:28;;;;;;;20.60;9.73;;;11.50;99.90;;;;;;5063426;28;20037;-70
2021/12/30 07:34:54;;;;;;;23.35;9.68;;;11.50;99.90;;;;;;5061896;28;20128;-70
2021/12/30 07:37:20;;;;;;;25.27;10.95;;;11.50;99.90;;;;;;5065749;28;20119;-70
2021/12/30 07:39:47;;;;;;;27.92;11.73;;;11.50;99.90;;;;;;5063174;28;20099;-70
2021/12/30 07:42:12;;;;;;;27.60;12.02;;;11.60;99.90;;;;;;5050153;28;20429;-69
2021/12/30 07:44:39;;;;;;;30.88;12.57;;;11.50;99.90;;;;;;5055663;28;20066;-70
2021/12/30 07:47:06;;;;;;;30.63;12.23;;;11.60;99.90;;;;;;5041502;28;20221;-70
2021/12/30 07:49:32;;;;;;;31.55;12.57;;;11.60;99.90;;;;;;5056498;28;20051;-69
2021/12/30 07:51:59;;;;;;;29.60;12.25;;;11.60;99.90;;;;;;5056054;28;20059;-68
2021/12/30 07:54:25;;;;;;;27.45;12.45;;;11.60;99.90;;;;;;5060031;28;20408;-67
2021/12/30 07:56:51;;;;;;;34.17;13.75;;;11.60;99.90;;;;;;5054224;28;20114;-67
2021/12/30 07:59:16;;;;;;;32.63;13.52;;;11.60;99.90;;;;;;5054200;28;20072;-69
2021/12/30 08:01:42;;;;;;;34.95;14.57;;;11.60;99.90;;;;;;5051920;28;20045;-68
2021/12/30 08:04:08;;;;;;;36.00;14.73;;;11.60;99.90;;;;;;5052029;28;20133;-67
2021/12/30 08:06:34;;;;;;;35.47;15.48;;;11.60;99.90;;;;;;5052886;28;20120;-68
2021/12/30 08:08:59;;;;;;;37.35;15.40;;;11.70;99.90;;;;;;5053895;28;20522;-68
2021/12/30 08:11:25;;;;;;;39.45;16.13;;;11.70;99.90;;;;;;5054343;28;20049;-68
2021/12/30 08:13:51;;;;;;;35.88;16.02;;;11.70;99.90;;;;;;5055604;28;20041;-68
2021/12/30 08:16:16;;;;;;;39.33;15.48;;;11.70;99.90;;;;;;5055155;28;20053;-68
2021/12/30 08:18:42;;;;;;;31.42;15.43;;;11.80;99.90;;;;;;5052390;28;20060;-68
2021/12/30 08:21:09;;;;;;;38.60;16.10;;;11.80;99.90;;;;;;5052416;28;20036;-68
2021/12/30 08:23:35;;;;;;;30.15;15.10;;;11.80;99.90;;;;;;5059449;28;20383;-68
2021/12/30 08:26:03;;;;;;;28.42;15.10;;;11.90;99.90;;;;;;5056313;28;20480;-68
2021/12/30 08:28:28;;;;;;;26.98;13.63;;;11.90;99.90;;;;;;5055145;28;20395;-68
2021/12/30 08:30:54;;;;;;;26.85;13.63;;;11.90;99.90;;;;;;5062779;28;20040;-69
2021/12/30 08:33:19;;;;;;;31.02;14.07;;;12.00;99.90;;;;;;5055166;28;20408;-68
2021/12/30 08:35:45;;;;;;;21.23;11.65;;;12.00;99.90;;;;;;5062263;28;20111;-68
2021/12/30 08:38:12;;;;;;;20.83;11.25;;;12.10;99.90;;;;;;5054971;28;20052;-69
2021/12/30 08:40:38;;;;;;;18.33;10.25;;;12.00;99.90;;;;;;5057686;28;20056;-68
2021/12/30 08:43:06;;;;;;;23.85;11.20;;;12.10;99.90;;;;;;5058611;28;20040;-69
2021/12/30 08:45:33;;;;;;;22.50;11.20;;;12.10;99.90;;;;;;5060753;28;20059;-69
2021/12/30 08:47:58;;;;;;;26.17;11.18;;;12.20;99.90;;;;;;5062308;28;20482;-69
2021/12/30 08:50:24;;;;;;;25.83;11.40;;;12.10;99.90;;;;;;5071559;28;20041;-69
2021/12/30 08:52:50;;;;;;;23.48;12.68;;;12.20;99.90;;;;;;5069134;28;20048;-69
2021/12/30 08:55:17;;;;;;;25.13;13.05;;;12.20;99.90;;;;;;5050434;28;20446;-68
2021/12/30 08:57:44;;;;;;;21.63;13.10;;;12.20;99.90;;;;;;5064595;28;20137;-71
2021/12/30 09:00:14;;;;;;;26.55;13.48;;;12.20;99.90;;;;;;5058033;28;20049;-69
2021/12/30 09:02:40;;;;;;;28.58;14.60;;;12.20;99.90;;;;;;5054359;28;20099;-69
2021/12/30 09:05:07;;;;;;;27.52;15.32;;;12.20;99.90;;;;;;5049415;28;20080;-70
2021/12/30 09:07:32;;;;;;;31.40;15.55;;;12.30;99.90;;;;;;5068321;28;20197;-69
2021/12/30 09:10:06;;;;;;;28.10;14.75;;;12.30;99.90;;;;;;5058512;28;20531;-71
2021/12/30 09:12:32;;;;;;;25.27;14.50;;;12.30;99.90;;;;;;5050379;28;20510;-70
2021/12/30 09:14:59;;;;;;;28.92;16.20;;;12.30;99.90;;;;;;5054779;28;20127;-69
2021/12/30 09:17:24;;;;;;;28.85;16.23;;;12.30;99.90;;;;;;5063013;28;20048;-69
2021/12/30 09:19:50;;;;;;;28.88;16.65;;;12.30;99.90;;;;;;5055713;28;20041;-69
2021/12/30 09:22:21;;;;;;;30.20;16.73;;;12.30;99.90;;;;;;5050769;28;20040;-70
2021/12/30 09:24:47;;;;;;;28.92;16.27;;;12.20;99.90;;;;;;5060648;28;20056;-69
2021/12/30 09:27:12;;;;;;;25.63;15.77;;;12.30;99.90;;;;;;5066417;28;20080;-70
2021/12/30 09:29:40;;;;;;;25.30;15.70;;;12.30;99.90;;;;;;5060422;28;20041;-70
2021/12/30 09:32:06;;;;;;;27.30;15.07;;;12.30;99.90;;;;;;5055671;28;20122;-70
2021/12/30 09:34:32;;;;;;;24.15;14.02;;;12.40;99.90;;;;;;5050288;28;20079;-69
2021/12/30 09:36:57;;;;;;;23.25;13.30;;;12.30;99.90;;;;;;5057439;28;20072;-69
2021/12/30 09:39:26;;;;;;;24.17;13.15;;;12.40;99.90;;;;;;5055649;28;20043;-68
2021/12/30 09:41:52;;;;;;;21.08;12.35;;;12.40;99.90;;;;;;5053603;28;20047;-69
2021/12/30 09:44:19;;;;;;;23.30;11.48;;;12.40;99.90;;;;;;5062113;28;20049;-68
2021/12/30 09:46:45;;;;;;;24.15;11.45;;;12.40;99.90;;;;;;5058862;28;20069;-68
2021/12/30 09:49:15;;;;;;;20.98;10.52;;;12.40;99.90;;;;;;5063751;28;20135;-68
2021/12/30 09:51:42;;;;;;;24.25;10.95;;;12.40;99.90;;;;;;5058040;28;20080;-68
2021/12/30 09:54:08;;;;;;;23.30;10.10;;;12.40;99.90;;;;;;5062722;28;20052;-69
2021/12/30 09:56:34;;;;;;;25.45;10.63;;;12.50;99.90;;;;;;5055251;28;20045;-68
2021/12/30 09:59:00;;;;;;;18.40;8.82;;;12.40;99.90;;;;;;5058582;28;20048;-68
2021/12/30 10:01:26;;;;;;;24.42;9.45;;;12.40;99.90;;;;;;5057314;28;20132;-69
2021/12/30 10:04:02;;;;;;;21.25;8.93;;;12.50;99.90;;;;;;5057589;28;20523;-68
2021/12/30 10:06:30;;;;;;;19.55;7.68;;;12.50;99.90;;;;;;5056975;28;20125;-69
2021/12/30 10:08:58;;;;;;;22.05;8.20;;;12.50;99.90;;;;;;5064809;28;20495;-68
2021/12/30 10:11:26;;;;;;;22.40;7.50;;;12.50;99.90;;;;;;5054997;28;20045;-69
2021/12/30 10:13:56;;;;;;;17.85;7.10;;;12.50;99.90;;;;;;5060445;28;20052;-68
2021/12/30 10:16:23;;;;;;;22.67;7.55;;;12.50;99.90;;;;;;5059324;28;20051;-68
2021/12/30 10:18:58;;;;;;;24.33;7.45;;;12.50;99.90;;;;;;5058440;28;20096;-69
2021/12/30 10:21:25;;;;;;;21.77;7.50;;;12.50;99.90;;;;;;5070802;28;20060;-68
2021/12/30 10:23:54;;;;;;;24.63;7.65;;;12.60;99.90;;;;;;5054345;28;20124;-68
2021/12/30 10:26:20;;;;;;;23.10;7.55;;;12.50;99.90;;;;;;5054328;28;20427;-69
2021/12/30 10:28:50;;;;;;;23.58;7.85;;;12.50;99.90;;;;;;5052644;28;20040;-69
2021/12/30 10:31:19;;;;;;;23.00;7.95;;;12.50;99.90;;;;;;5060430;28;20049;-70
2021/12/30 10:34:00;;;;;;;23.77;7.93;;;12.50;99.90;;;;;;5057145;28;20057;-75
2021/12/30 10:36:30;;;;;;;33.95;8.95;;;12.50;99.90;;;;;;5056074;28;20555;-73
2021/12/30 10:39:17;;;;;;;29.40;8.90;;;12.50;99.90;;;;;;5058120;28;20060;-73
2021/12/30 10:41:42;;;;;;;30.55;9.88;;;12.60;99.90;;;;;;5059542;28;20059;-76
2021/12/30 10:44:08;;;;;;;27.77;8.70;;;12.50;99.90;;;;;;5058215;28;20447;-73
2021/12/30 10:46:34;;;;;;;28.02;8.88;;;12.50;99.90;;;;;;5058398;28;20068;-75
2021/12/30 10:49:02;;;;;;;29.38;8.43;;;12.50;99.90;;;;;;5041548;28;20052;-77
2021/12/30 10:51:48;;;;;;;29.73;8.57;;;12.50;99.90;;;;;;5056351;28;20041;-70
2021/12/30 10:54:32;;;;;;;34.13;8.38;;;12.50;99.90;;;;;;5057297;28;20033;-73
2021/12/30 10:57:07;;;;;;;37.85;7.97;;;12.60;99.90;;;;;;5053826;28;20076;-72
2021/12/30 10:59:36;;;;;;;29.52;7.75;;;12.60;99.90;;;;;;5061620;28;20036;-76
2021/12/30 11:02:08;;;;;;;31.08;8.05;;;12.60;99.90;;;;;;5055736;28;20120;-76
2021/12/30 11:04:44;;;;;;;31.30;7.82;;;12.60;99.90;;;;;;5061161;28;20455;-76
2021/12/30 11:07:13;;;;;;;26.08;7.07;;;12.60;99.90;;;;;;5057610;28;20123;-76
2021/12/30 11:09:47;;;;;;;33.08;7.65;;;12.60;99.90;;;;;;5057913;28;20060;-74
2021/12/30 11:12:13;;;;;;;31.20;7.38;;;12.60;99.90;;;;;;5062605;28;20170;-72
2021/12/30 11:14:38;;;;;;;29.25;7.57;;;12.60;99.90;;;;;;5057511;28;20123;-73
2021/12/30 11:17:16;;;;;;;27.77;6.50;;;12.60;99.90;;;;;;5053379;28;20045;-73
2021/12/30 11:19:49;;;;;;;29.13;6.45;;;12.60;99.90;;;;;;5054672;28;20060;-75
2021/12/30 11:22:26;;;;;;;30.58;7.40;;;12.60;99.90;;;;;;5054672;28;20049;-74
2021/12/30 11:24:54;;;;;;;22.88;6.55;;;12.60;99.90;;;;;;5062186;28;20033;-72
2021/12/30 11:27:21;;;;;;;34.17;7.47;;;12.60;99.90;;;;;;5051256;28;20171;-74
2021/12/30 11:29:49;;;;;;;31.17;6.50;;;12.60;99.90;;;;;;5059448;28;20480;-75
2021/12/30 11:32:21;;;;;;;22.92;5.55;;;12.70;99.90;;;;;;5049934;28;20045;-74
2021/12/30 11:34:48;;;;;;;23.92;5.80;;;12.70;99.90;;;;;;5052350;28;20037;-75
2021/12/30 11:37:15;;;;;;;27.00;5.95;;;12.70;99.90;;;;;;5059247;28;21151;-74
2021/12/30 11:39:43;;;;;;;25.70;5.95;;;12.70;99.90;;;;;;5061663;28;20029;-76
2021/12/30 11:42:52;;;;;;;27.50;5.75;;;12.70;99.90;;;;;;5052489;28;20072;-69
2021/12/30 11:45:34;;;;;;;27.08;5.40;;;12.70;99.90;;;;;;5054474;28;20063;-74
2021/12/30 11:48:02;;;;;;;25.95;6.00;;;12.70;99.90;;;;;;5050148;28;20041;-73
2021/12/30 11:50:37;;;;;;;24.33;5.20;;;12.70;99.90;;;;;;5059783;28;20052;-71
2021/12/30 11:53:24;;;;;;;29.98;6.18;;;12.70;99.90;;;;;;5055769;28;20055;-71
2021/12/30 11:55:57;;;;;;;26.98;5.82;;;12.70;99.90;;;;;;5052836;28;20036;-72
2021/12/30 11:58:35;;;;;;;20.70;5.07;;;12.70;99.90;;;;;;5053278;28;20040;-72
2021/12/30 12:01:24;;;;;;;24.25;6.20;;;12.70;99.90;;;;;;5055445;28;20045;-73
2021/12/30 12:03:52;;;;;;;22.83;5.88;;;12.70;99.90;;;;;;5063393;28;20064;-71
2021/12/30 12:06:24;;;;;;;25.75;5.38;;;12.70;99.90;;;;;;5055184;28;20360;-75
2021/12/30 12:09:13;;;;;;;23.30;5.82;;;12.70;99.90;;;;;;5057448;28;20409;-72
2021/12/30 12:11:41;;;;;;;23.70;5.97;;;12.70;99.90;;;;;;5049222;28;20056;-74
2021/12/30 12:14:15;;;;;;;21.83;5.00;;;12.70;99.90;;;;;;5053003;28;20537;-74
2021/12/30 12:16:58;;;;;;;25.45;5.65;;;12.70;99.90;;;;;;5050268;28;20045;-74
2021/12/30 12:19:33;;;;;;;23.00;5.60;;;12.70;99.90;;;;;;5055133;28;20045;-78
2021/12/30 12:22:00;;;;;;;21.05;5.43;;;12.70;99.90;;;;;;5056859;28;20055;-79
2021/12/30 12:24:32;;;;;;;23.92;5.20;;;12.70;99.90;;;;;;5065913;28;20528;-75
2021/12/30 12:27:01;;;;;;;21.52;5.13;;;12.70;99.90;;;;;;5055623;28;20792;-75
2021/12/30 12:29:33;;;;;;;23.58;5.18;;;12.70;99.90;;;;;;5049981;28;20068;-75
2021/12/30 12:32:03;;;;;;;21.60;4.60;;;12.70;99.90;;;;;;5053545;28;20110;-75
2021/12/30 12:34:37;;;;;;;24.95;5.18;;;12.70;99.90;;;;;;5048934;28;20065;-77
2021/12/30 12:37:04;;;;;;;20.15;4.55;;;12.70;99.90;;;;;;5052209;28;20445;-76